Thayer, Missouri
Current Conditions -  °F | °C
As of 9:53 PM on Thursday 27 Nov 2014 (Local Time) from KUNO Reporting Station
Clear Clear  
Wind Chill: 29°   Ceiling: Unl
Heat Index: 33°   Visibility: 10mi
Dew Point: 20°   Wind: 5mph
Humidity: 59%   Direction: 140°SE
Pressure: 30.39"   Gusts: NA
Location:  36.52°N, 91.54°W
Report Text: KUNO 280353Z AUTO 14004KT 10SM CLR 01/M07 A3039 RMK AO2 SLP300 T00061067
Loading
Personal Weather Stations






























Interactive Weather Map New forecast layout! Learn more

10-Day Weather Forecast

Advertisements
Track Severe Weather on mobile